sensor_id;sensor_type;location;lat;lon;timestamp;P1;durP1;ratioP1;P2;durP2;ratioP2
67902;SDS011;54708;43.612;1.568;2023-11-18T00:00:25;15.85;;;10.70;;
67902;SDS011;54708;43.612;1.568;2023-11-18T00:02:51;16.48;;;10.25;;
67902;SDS011;54708;43.612;1.568;2023-11-18T00:05:16;13.90;;;10.18;;
67902;SDS011;54708;43.612;1.568;2023-11-18T00:07:42;15.43;;;9.65;;
67902;SDS011;54708;43.612;1.568;2023-11-18T00:10:08;14.35;;;10.25;;
67902;SDS011;54708;43.612;1.568;2023-11-18T00:12:34;15.35;;;9.85;;
67902;SDS011;54708;43.612;1.568;2023-11-18T00:15:03;14.48;;;10.48;;
67902;SDS011;54708;43.612;1.568;2023-11-18T00:17:29;20.23;;;10.30;;
67902;SDS011;54708;43.612;1.568;2023-11-18T00:19:55;17.15;;;10.02;;
67902;SDS011;54708;43.612;1.568;2023-11-18T00:22:21;14.75;;;9.85;;
67902;SDS011;54708;43.612;1.568;2023-11-18T00:24:46;13.65;;;9.25;;
67902;SDS011;54708;43.612;1.568;2023-11-18T00:27:12;17.17;;;10.20;;
67902;SDS011;54708;43.612;1.568;2023-11-18T00:29:39;18.40;;;10.23;;
67902;SDS011;54708;43.612;1.568;2023-11-18T00:32:05;16.38;;;10.57;;
67902;SDS011;54708;43.612;1.568;2023-11-18T00:34:32;24.13;;;10.13;;
67902;SDS011;54708;43.612;1.568;2023-11-18T00:36:57;16.83;;;11.18;;
67902;SDS011;54708;43.612;1.568;2023-11-18T00:39:23;13.40;;;9.45;;
67902;SDS011;54708;43.612;1.568;2023-11-18T00:41:49;11.63;;;9.30;;
67902;SDS011;54708;43.612;1.568;2023-11-18T00:44:14;16.67;;;9.90;;
67902;SDS011;54708;43.612;1.568;2023-11-18T00:46:39;16.75;;;9.70;;
67902;SDS011;54708;43.612;1.568;2023-11-18T00:49:05;13.55;;;9.73;;
67902;SDS011;54708;43.612;1.568;2023-11-18T00:51:30;15.68;;;10.68;;
67902;SDS011;54708;43.612;1.568;2023-11-18T00:53:56;14.70;;;10.15;;
67902;SDS011;54708;43.612;1.568;2023-11-18T00:56:21;16.65;;;10.95;;
67902;SDS011;54708;43.612;1.568;2023-11-18T00:58:47;16.60;;;10.05;;
67902;SDS011;54708;43.612;1.568;2023-11-18T01:01:13;16.02;;;10.02;;
67902;SDS011;54708;43.612;1.568;2023-11-18T01:03:45;14.00;;;10.15;;
67902;SDS011;54708;43.612;1.568;2023-11-18T01:06:11;12.93;;;9.77;;
67902;SDS011;54708;43.612;1.568;2023-11-18T01:08:37;17.10;;;9.23;;
67902;SDS011;54708;43.612;1.568;2023-11-18T01:11:02;15.40;;;9.95;;
67902;SDS011;54708;43.612;1.568;2023-11-18T01:13:29;20.35;;;10.48;;
67902;SDS011;54708;43.612;1.568;2023-11-18T01:15:55;18.55;;;10.15;;
67902;SDS011;54708;43.612;1.568;2023-11-18T01:18:20;20.60;;;12.55;;
67902;SDS011;54708;43.612;1.568;2023-11-18T01:20:45;19.40;;;11.65;;
67902;SDS011;54708;43.612;1.568;2023-11-18T01:23:12;12.38;;;10.13;;
67902;SDS011;54708;43.612;1.568;2023-11-18T01:25:37;27.73;;;12.13;;
67902;SDS011;54708;43.612;1.568;2023-11-18T01:28:05;15.40;;;11.43;;
67902;SDS011;54708;43.612;1.568;2023-11-18T01:30:30;13.68;;;9.75;;
67902;SDS011;54708;43.612;1.568;2023-11-18T01:32:56;14.73;;;10.63;;
67902;SDS011;54708;43.612;1.568;2023-11-18T01:35:22;18.27;;;10.23;;
67902;SDS011;54708;43.612;1.568;2023-11-18T01:37:50;16.48;;;9.68;;
67902;SDS011;54708;43.612;1.568;2023-11-18T01:40:16;16.30;;;11.05;;
67902;SDS011;54708;43.612;1.568;2023-11-18T01:42:43;15.90;;;10.48;;
67902;SDS011;54708;43.612;1.568;2023-11-18T01:45:08;16.60;;;10.80;;
67902;SDS011;54708;43.612;1.568;2023-11-18T01:47:36;14.93;;;10.30;;
67902;SDS011;54708;43.612;1.568;2023-11-18T01:50:02;18.23;;;11.10;;
67902;SDS011;54708;43.612;1.568;2023-11-18T01:52:30;15.65;;;11.20;;
67902;SDS011;54708;43.612;1.568;2023-11-18T01:54:56;19.48;;;10.20;;
67902;SDS011;54708;43.612;1.568;2023-11-18T01:57:21;16.52;;;10.85;;
67902;SDS011;54708;43.612;1.568;2023-11-18T01:59:47;17.90;;;11.15;;
67902;SDS011;54708;43.612;1.568;2023-11-18T02:02:12;17.85;;;10.32;;
67902;SDS011;54708;43.612;1.568;2023-11-18T02:04:38;16.90;;;10.77;;
67902;SDS011;54708;43.612;1.568;2023-11-18T02:07:04;20.05;;;10.50;;
67902;SDS011;54708;43.612;1.568;2023-11-18T02:09:34;12.32;;;10.00;;
67902;SDS011;54708;43.612;1.568;2023-11-18T02:14:47;13.50;;;10.75;;
67902;SDS011;54708;43.612;1.568;2023-11-18T02:17:14;16.08;;;10.27;;
67902;SDS011;54708;43.612;1.568;2023-11-18T02:19:40;17.58;;;11.48;;
67902;SDS011;54708;43.612;1.568;2023-11-18T02:22:06;17.05;;;10.05;;
67902;SDS011;54708;43.612;1.568;2023-11-18T02:24:32;14.43;;;10.40;;
67902;SDS011;54708;43.612;1.568;2023-11-18T02:27:02;21.10;;;12.02;;
67902;SDS011;54708;43.612;1.568;2023-11-18T02:29:35;18.50;;;11.90;;
67902;SDS011;54708;43.612;1.568;2023-11-18T02:35:41;14.55;;;11.18;;
67902;SDS011;54708;43.612;1.568;2023-11-18T02:37:46;17.35;;;10.43;;
67902;SDS011;54708;43.612;1.568;2023-11-18T02:40:16;16.90;;;11.30;;
67902;SDS011;54708;43.612;1.568;2023-11-18T02:42:44;16.05;;;11.00;;
67902;SDS011;54708;43.612;1.568;2023-11-18T02:45:10;16.80;;;11.18;;
67902;SDS011;54708;43.612;1.568;2023-11-18T02:47:40;15.60;;;11.25;;
67902;SDS011;54708;43.612;1.568;2023-11-18T02:50:05;20.33;;;10.60;;
67902;SDS011;54708;43.612;1.568;2023-11-18T02:52:35;21.77;;;10.55;;
67902;SDS011;54708;43.612;1.568;2023-11-18T02:55:07;17.85;;;9.88;;
67902;SDS011;54708;43.612;1.568;2023-11-18T02:57:34;14.45;;;10.30;;
67902;SDS011;54708;43.612;1.568;2023-11-18T02:59:59;19.00;;;10.63;;
67902;SDS011;54708;43.612;1.568;2023-11-18T03:02:28;15.82;;;10.95;;
67902;SDS011;54708;43.612;1.568;2023-11-18T03:04:56;13.43;;;9.02;;
67902;SDS011;54708;43.612;1.568;2023-11-18T03:07:22;13.05;;;9.75;;
67902;SDS011;54708;43.612;1.568;2023-11-18T03:09:47;22.98;;;11.52;;
67902;SDS011;54708;43.612;1.568;2023-11-18T03:12:13;17.63;;;11.32;;
67902;SDS011;54708;43.612;1.568;2023-11-18T03:14:38;16.38;;;11.27;;
67902;SDS011;54708;43.612;1.568;2023-11-18T03:17:04;18.52;;;10.82;;
67902;SDS011;54708;43.612;1.568;2023-11-18T03:19:32;18.80;;;10.70;;
67902;SDS011;54708;43.612;1.568;2023-11-18T03:21:59;19.52;;;11.45;;
67902;SDS011;54708;43.612;1.568;2023-11-18T03:24:25;13.10;;;9.18;;
67902;SDS011;54708;43.612;1.568;2023-11-18T03:26:50;13.57;;;8.82;;
67902;SDS011;54708;43.612;1.568;2023-11-18T03:29:16;13.18;;;9.18;;
67902;SDS011;54708;43.612;1.568;2023-11-18T03:31:42;15.82;;;9.93;;
67902;SDS011;54708;43.612;1.568;2023-11-18T03:34:09;16.30;;;8.57;;
67902;SDS011;54708;43.612;1.568;2023-11-18T03:36:35;11.88;;;8.10;;
67902;SDS011;54708;43.612;1.568;2023-11-18T03:39:00;11.60;;;8.38;;
67902;SDS011;54708;43.612;1.568;2023-11-18T03:41:26;17.00;;;9.25;;
67902;SDS011;54708;43.612;1.568;2023-11-18T03:43:52;15.85;;;9.82;;
67902;SDS011;54708;43.612;1.568;2023-11-18T03:46:17;13.82;;;8.60;;
67902;SDS011;54708;43.612;1.568;2023-11-18T03:48:43;12.52;;;8.38;;
67902;SDS011;54708;43.612;1.568;2023-11-18T03:51:09;16.10;;;9.27;;
67902;SDS011;54708;43.612;1.568;2023-11-18T03:53:34;11.13;;;8.15;;
67902;SDS011;54708;43.612;1.568;2023-11-18T03:56:00;15.35;;;9.48;;
67902;SDS011;54708;43.612;1.568;2023-11-18T03:58:27;14.63;;;8.70;;
67902;SDS011;54708;43.612;1.568;2023-11-18T04:00:53;12.65;;;9.43;;
67902;SDS011;54708;43.612;1.568;2023-11-18T04:03:18;13.50;;;8.02;;
67902;SDS011;54708;43.612;1.568;2023-11-18T04:05:44;12.15;;;8.00;;
67902;SDS011;54708;43.612;1.568;2023-11-18T04:08:09;17.27;;;8.95;;
67902;SDS011;54708;43.612;1.568;2023-11-18T04:10:36;14.07;;;10.27;;
67902;SDS011;54708;43.612;1.568;2023-11-18T04:13:02;18.45;;;8.40;;
67902;SDS011;54708;43.612;1.568;2023-11-18T04:15:27;11.98;;;8.45;;
67902;SDS011;54708;43.612;1.568;2023-11-18T04:17:53;12.40;;;8.25;;
67902;SDS011;54708;43.612;1.568;2023-11-18T04:20:18;9.85;;;7.65;;
67902;SDS011;54708;43.612;1.568;2023-11-18T04:22:44;13.90;;;7.15;;
67902;SDS011;54708;43.612;1.568;2023-11-18T04:25:10;12.10;;;8.95;;
67902;SDS011;54708;43.612;1.568;2023-11-18T04:27:39;18.92;;;9.60;;
67902;SDS011;54708;43.612;1.568;2023-11-18T04:30:05;11.05;;;7.00;;
67902;SDS011;54708;43.612;1.568;2023-11-18T04:32:31;9.75;;;8.25;;
67902;SDS011;54708;43.612;1.568;2023-11-18T04:34:58;12.02;;;7.93;;
67902;SDS011;54708;43.612;1.568;2023-11-18T04:37:25;17.25;;;9.43;;
67902;SDS011;54708;43.612;1.568;2023-11-18T04:39:50;13.02;;;7.88;;
67902;SDS011;54708;43.612;1.568;2023-11-18T04:42:15;12.68;;;8.23;;
67902;SDS011;54708;43.612;1.568;2023-11-18T04:44:41;17.27;;;8.40;;
67902;SDS011;54708;43.612;1.568;2023-11-18T04:47:07;13.07;;;8.43;;
67902;SDS011;54708;43.612;1.568;2023-11-18T04:49:32;10.55;;;7.72;;
67902;SDS011;54708;43.612;1.568;2023-11-18T04:51:57;13.63;;;8.18;;
67902;SDS011;54708;43.612;1.568;2023-11-18T04:54:24;10.52;;;7.75;;
67902;SDS011;54708;43.612;1.568;2023-11-18T04:56:49;9.55;;;7.15;;
67902;SDS011;54708;43.612;1.568;2023-11-18T04:59:15;16.50;;;8.95;;
67902;SDS011;54708;43.612;1.568;2023-11-18T05:01:40;11.68;;;7.15;;
67902;SDS011;54708;43.612;1.568;2023-11-18T05:04:05;14.38;;;7.22;;
67902;SDS011;54708;43.612;1.568;2023-11-18T05:06:33;14.60;;;8.27;;
67902;SDS011;54708;43.612;1.568;2023-11-18T05:08:58;12.20;;;6.82;;
67902;SDS011;54708;43.612;1.568;2023-11-18T05:11:24;11.93;;;7.75;;
67902;SDS011;54708;43.612;1.568;2023-11-18T05:13:49;12.45;;;8.30;;
67902;SDS011;54708;43.612;1.568;2023-11-18T05:16:14;15.32;;;9.38;;
67902;SDS011;54708;43.612;1.568;2023-11-18T05:18:40;16.33;;;10.23;;
67902;SDS011;54708;43.612;1.568;2023-11-18T05:21:07;20.27;;;10.13;;
67902;SDS011;54708;43.612;1.568;2023-11-18T05:23:35;15.57;;;9.27;;
67902;SDS011;54708;43.612;1.568;2023-11-18T05:26:01;16.60;;;10.20;;
67902;SDS011;54708;43.612;1.568;2023-11-18T05:28:29;21.08;;;9.82;;
67902;SDS011;54708;43.612;1.568;2023-11-18T05:30:55;16.70;;;9.88;;
67902;SDS011;54708;43.612;1.568;2023-11-18T05:33:23;16.50;;;10.27;;
67902;SDS011;54708;43.612;1.568;2023-11-18T05:35:48;16.73;;;8.25;;
67902;SDS011;54708;43.612;1.568;2023-11-18T05:38:16;15.25;;;9.10;;
67902;SDS011;54708;43.612;1.568;2023-11-18T05:40:44;14.93;;;10.40;;
67902;SDS011;54708;43.612;1.568;2023-11-18T05:43:20;17.75;;;9.70;;
67902;SDS011;54708;43.612;1.568;2023-11-18T05:45:50;12.45;;;8.00;;
67902;SDS011;54708;43.612;1.568;2023-11-18T05:48:35;16.40;;;8.95;;
67902;SDS011;54708;43.612;1.568;2023-11-18T05:51:00;13.80;;;9.60;;
67902;SDS011;54708;43.612;1.568;2023-11-18T05:53:25;14.73;;;8.18;;
67902;SDS011;54708;43.612;1.568;2023-11-18T05:55:51;13.93;;;7.93;;
67902;SDS011;54708;43.612;1.568;2023-11-18T05:58:16;13.30;;;9.40;;
67902;SDS011;54708;43.612;1.568;2023-11-18T06:00:41;15.60;;;8.13;;
67902;SDS011;54708;43.612;1.568;2023-11-18T06:03:07;12.20;;;7.63;;
67902;SDS011;54708;43.612;1.568;2023-11-18T06:05:32;16.67;;;8.50;;
67902;SDS011;54708;43.612;1.568;2023-11-18T06:07:59;10.00;;;7.80;;
67902;SDS011;54708;43.612;1.568;2023-11-18T06:10:25;12.32;;;7.60;;
67902;SDS011;54708;43.612;1.568;2023-11-18T06:12:50;12.60;;;8.07;;
67902;SDS011;54708;43.612;1.568;2023-11-18T06:15:16;12.82;;;7.72;;
67902;SDS011;54708;43.612;1.568;2023-11-18T06:17:44;13.38;;;8.68;;
67902;SDS011;54708;43.612;1.568;2023-11-18T06:20:09;14.93;;;8.10;;
67902;SDS011;54708;43.612;1.568;2023-11-18T06:22:35;11.32;;;6.72;;
67902;SDS011;54708;43.612;1.568;2023-11-18T06:25:01;10.23;;;7.22;;
67902;SDS011;54708;43.612;1.568;2023-11-18T06:27:27;10.05;;;6.75;;
67902;SDS011;54708;43.612;1.568;2023-11-18T06:29:53;13.77;;;8.07;;
67902;SDS011;54708;43.612;1.568;2023-11-18T06:32:19;12.23;;;6.97;;
67902;SDS011;54708;43.612;1.568;2023-11-18T06:34:45;14.38;;;7.22;;
67902;SDS011;54708;43.612;1.568;2023-11-18T06:37:10;12.98;;;7.28;;
67902;SDS011;54708;43.612;1.568;2023-11-18T06:39:40;9.88;;;7.30;;
67902;SDS011;54708;43.612;1.568;2023-11-18T06:42:09;13.98;;;7.22;;
67902;SDS011;54708;43.612;1.568;2023-11-18T06:44:36;8.60;;;6.68;;
67902;SDS011;54708;43.612;1.568;2023-11-18T06:47:02;9.88;;;6.60;;
67902;SDS011;54708;43.612;1.568;2023-11-18T06:49:29;12.52;;;7.35;;
67902;SDS011;54708;43.612;1.568;2023-11-18T06:51:58;11.40;;;7.55;;
67902;SDS011;54708;43.612;1.568;2023-11-18T06:54:24;9.07;;;7.05;;
67902;SDS011;54708;43.612;1.568;2023-11-18T06:56:51;13.02;;;8.18;;
67902;SDS011;54708;43.612;1.568;2023-11-18T06:59:17;12.85;;;8.25;;
67902;SDS011;54708;43.612;1.568;2023-11-18T07:01:43;10.48;;;6.97;;
67902;SDS011;54708;43.612;1.568;2023-11-18T07:04:09;10.43;;;7.28;;
67902;SDS011;54708;43.612;1.568;2023-11-18T07:06:34;8.90;;;6.97;;
67902;SDS011;54708;43.612;1.568;2023-11-18T07:09:03;14.25;;;6.57;;
67902;SDS011;54708;43.612;1.568;2023-11-18T07:11:33;9.68;;;6.57;;
67902;SDS011;54708;43.612;1.568;2023-11-18T07:13:59;8.20;;;6.18;;
67902;SDS011;54708;43.612;1.568;2023-11-18T07:16:24;9.93;;;6.65;;
67902;SDS011;54708;43.612;1.568;2023-11-18T07:18:50;10.95;;;6.35;;
67902;SDS011;54708;43.612;1.568;2023-11-18T07:21:16;12.13;;;6.82;;
67902;SDS011;54708;43.612;1.568;2023-11-18T07:23:42;10.55;;;7.00;;
67902;SDS011;54708;43.612;1.568;2023-11-18T07:26:07;10.88;;;5.82;;
67902;SDS011;54708;43.612;1.568;2023-11-18T07:28:35;10.93;;;5.95;;
67902;SDS011;54708;43.612;1.568;2023-11-18T07:31:01;10.95;;;5.60;;
67902;SDS011;54708;43.612;1.568;2023-11-18T07:33:29;13.30;;;5.35;;
67902;SDS011;54708;43.612;1.568;2023-11-18T07:35:56;10.23;;;5.35;;
67902;SDS011;54708;43.612;1.568;2023-11-18T07:38:21;12.25;;;7.43;;
67902;SDS011;54708;43.612;1.568;2023-11-18T07:40:47;19.20;;;10.27;;
67902;SDS011;54708;43.612;1.568;2023-11-18T07:43:12;19.42;;;12.48;;
67902;SDS011;54708;43.612;1.568;2023-11-18T07:45:38;16.92;;;10.15;;
67902;SDS011;54708;43.612;1.568;2023-11-18T07:48:07;12.70;;;7.32;;
67902;SDS011;54708;43.612;1.568;2023-11-18T07:50:37;11.60;;;7.53;;
67902;SDS011;54708;43.612;1.568;2023-11-18T07:53:07;13.88;;;7.53;;
67902;SDS011;54708;43.612;1.568;2023-11-18T07:55:33;13.23;;;6.80;;
67902;SDS011;54708;43.612;1.568;2023-11-18T07:57:59;11.23;;;6.68;;
67902;SDS011;54708;43.612;1.568;2023-11-18T08:00:26;10.50;;;6.88;;
67902;SDS011;54708;43.612;1.568;2023-11-18T08:02:55;12.95;;;6.95;;
67902;SDS011;54708;43.612;1.568;2023-11-18T08:05:21;11.57;;;5.82;;
67902;SDS011;54708;43.612;1.568;2023-11-18T08:07:48;13.77;;;5.72;;
67902;SDS011;54708;43.612;1.568;2023-11-18T08:10:14;12.10;;;6.07;;
67902;SDS011;54708;43.612;1.568;2023-11-18T08:12:43;9.27;;;5.40;;
67902;SDS011;54708;43.612;1.568;2023-11-18T08:15:09;9.25;;;5.32;;
67902;SDS011;54708;43.612;1.568;2023-11-18T08:17:35;12.45;;;6.25;;
67902;SDS011;54708;43.612;1.568;2023-11-18T08:20:01;9.52;;;5.28;;
67902;SDS011;54708;43.612;1.568;2023-11-18T08:22:31;10.35;;;5.63;;
67902;SDS011;54708;43.612;1.568;2023-11-18T08:24:57;13.95;;;6.10;;
67902;SDS011;54708;43.612;1.568;2023-11-18T08:27:23;11.80;;;5.03;;
67902;SDS011;54708;43.612;1.568;2023-11-18T08:29:49;15.52;;;5.93;;
67902;SDS011;54708;43.612;1.568;2023-11-18T08:32:15;8.18;;;5.18;;
67902;SDS011;54708;43.612;1.568;2023-11-18T08:34:40;6.78;;;3.55;;
67902;SDS011;54708;43.612;1.568;2023-11-18T08:37:06;8.95;;;4.93;;
67902;SDS011;54708;43.612;1.568;2023-11-18T08:39:32;6.13;;;4.50;;
67902;SDS011;54708;43.612;1.568;2023-11-18T08:41:57;13.68;;;4.78;;
67902;SDS011;54708;43.612;1.568;2023-11-18T08:44:23;6.07;;;3.72;;
67902;SDS011;54708;43.612;1.568;2023-11-18T08:46:51;6.28;;;3.47;;
67902;SDS011;54708;43.612;1.568;2023-11-18T08:49:17;8.63;;;3.10;;
67902;SDS011;54708;43.612;1.568;2023-11-18T08:51:47;8.18;;;3.40;;
67902;SDS011;54708;43.612;1.568;2023-11-18T08:54:15;10.77;;;3.45;;
67902;SDS011;54708;43.612;1.568;2023-11-18T08:57:02;4.80;;;3.17;;
67902;SDS011;54708;43.612;1.568;2023-11-18T08:59:28;9.07;;;3.40;;
67902;SDS011;54708;43.612;1.568;2023-11-18T09:01:55;5.88;;;3.25;;
67902;SDS011;54708;43.612;1.568;2023-11-18T09:04:24;5.13;;;2.70;;
67902;SDS011;54708;43.612;1.568;2023-11-18T09:06:50;6.93;;;3.33;;
67902;SDS011;54708;43.612;1.568;2023-11-18T09:09:19;6.68;;;3.67;;
67902;SDS011;54708;43.612;1.568;2023-11-18T09:11:51;8.07;;;4.20;;
67902;SDS011;54708;43.612;1.568;2023-11-18T09:14:18;4.05;;;3.08;;
67902;SDS011;54708;43.612;1.568;2023-11-18T09:16:44;4.93;;;3.13;;
67902;SDS011;54708;43.612;1.568;2023-11-18T09:19:10;4.68;;;3.08;;
67902;SDS011;54708;43.612;1.568;2023-11-18T09:21:35;5.90;;;2.60;;
67902;SDS011;54708;43.612;1.568;2023-11-18T09:24:01;2.65;;;2.33;;
67902;SDS011;54708;43.612;1.568;2023-11-18T09:26:32;3.67;;;1.80;;
67902;SDS011;54708;43.612;1.568;2023-11-18T09:28:58;4.38;;;2.65;;
67902;SDS011;54708;43.612;1.568;2023-11-18T09:31:26;4.75;;;2.05;;
67902;SDS011;54708;43.612;1.568;2023-11-18T09:33:52;3.47;;;2.30;;
67902;SDS011;54708;43.612;1.568;2023-11-18T09:36:18;4.90;;;2.08;;
67902;SDS011;54708;43.612;1.568;2023-11-18T09:38:44;6.32;;;2.53;;
67902;SDS011;54708;43.612;1.568;2023-11-18T09:41:11;3.22;;;1.60;;
67902;SDS011;54708;43.612;1.568;2023-11-18T09:43:41;7.68;;;1.95;;
67902;SDS011;54708;43.612;1.568;2023-11-18T09:46:09;3.20;;;1.60;;
67902;SDS011;54708;43.612;1.568;2023-11-18T09:48:48;3.35;;;1.77;;
67902;SDS011;54708;43.612;1.568;2023-11-18T09:51:25;4.00;;;1.85;;
67902;SDS011;54708;43.612;1.568;2023-11-18T09:54:02;3.22;;;1.80;;
67902;SDS011;54708;43.612;1.568;2023-11-18T09:56:41;2.42;;;1.45;;
67902;SDS011;54708;43.612;1.568;2023-11-18T09:59:42;3.10;;;1.55;;
67902;SDS011;54708;43.612;1.568;2023-11-18T10:02:19;4.15;;;1.77;;
67902;SDS011;54708;43.612;1.568;2023-11-18T10:04:47;3.85;;;1.50;;
67902;SDS011;54708;43.612;1.568;2023-11-18T10:07:22;2.88;;;1.50;;
67902;SDS011;54708;43.612;1.568;2023-11-18T10:09:51;1.58;;;1.30;;
67902;SDS011;54708;43.612;1.568;2023-11-18T10:12:22;3.40;;;1.67;;
67902;SDS011;54708;43.612;1.568;2023-11-18T10:14:48;1.13;;;1.02;;
67902;SDS011;54708;43.612;1.568;2023-11-18T10:17:17;1.42;;;1.30;;
67902;SDS011;54708;43.612;1.568;2023-11-18T10:19:49;1.63;;;1.52;;
67902;SDS011;54708;43.612;1.568;2023-11-18T10:22:30;1.45;;;1.17;;
67902;SDS011;54708;43.612;1.568;2023-11-18T10:24:57;1.98;;;1.75;;
67902;SDS011;54708;43.612;1.568;2023-11-18T10:29:55;4.40;;;1.77;;
67902;SDS011;54708;43.612;1.568;2023-11-18T10:32:28;3.40;;;1.33;;
67902;SDS011;54708;43.612;1.568;2023-11-18T10:34:57;3.42;;;2.00;;
67902;SDS011;54708;43.612;1.568;2023-11-18T10:37:22;3.90;;;2.97;;
67902;SDS011;54708;43.612;1.568;2023-11-18T10:39:48;4.90;;;4.15;;
67902;SDS011;54708;43.612;1.568;2023-11-18T10:42:16;9.07;;;4.38;;
67902;SDS011;54708;43.612;1.568;2023-11-18T10:45:04;4.28;;;2.78;;
67902;SDS011;54708;43.612;1.568;2023-11-18T10:47:38;4.40;;;2.25;;
67902;SDS011;54708;43.612;1.568;2023-11-18T10:50:07;5.45;;;2.25;;
67902;SDS011;54708;43.612;1.568;2023-11-18T10:52:34;9.00;;;2.65;;
67902;SDS011;54708;43.612;1.568;2023-11-18T10:55:05;5.47;;;2.30;;
67902;SDS011;54708;43.612;1.568;2023-11-18T10:57:36;4.68;;;1.80;;
67902;SDS011;54708;43.612;1.568;2023-11-18T11:00:07;5.50;;;2.50;;
67902;SDS011;54708;43.612;1.568;2023-11-18T11:02:39;6.30;;;2.67;;
67902;SDS011;54708;43.612;1.568;2023-11-18T11:05:07;4.28;;;2.78;;
67902;SDS011;54708;43.612;1.568;2023-11-18T11:07:33;3.13;;;2.00;;
67902;SDS011;54708;43.612;1.568;2023-11-18T11:10:01;3.88;;;2.20;;
67902;SDS011;54708;43.612;1.568;2023-11-18T11:12:31;4.80;;;1.77;;
67902;SDS011;54708;43.612;1.568;2023-11-18T11:15:04;3.58;;;2.05;;
67902;SDS011;54708;43.612;1.568;2023-11-18T11:17:46;4.97;;;2.17;;
67902;SDS011;54708;43.612;1.568;2023-11-18T11:20:13;3.70;;;1.98;;
67902;SDS011;54708;43.612;1.568;2023-11-18T11:31:16;6.63;;;3.63;;
67902;SDS011;54708;43.612;1.568;2023-11-18T11:33:50;5.75;;;3.35;;
67902;SDS011;54708;43.612;1.568;2023-11-18T11:36:33;5.32;;;2.97;;
67902;SDS011;54708;43.612;1.568;2023-11-18T11:39:03;4.25;;;1.83;;
67902;SDS011;54708;43.612;1.568;2023-11-18T11:41:31;6.63;;;3.40;;
67902;SDS011;54708;43.612;1.568;2023-11-18T11:43:59;3.15;;;2.60;;
67902;SDS011;54708;43.612;1.568;2023-11-18T11:46:26;4.95;;;3.15;;
67902;SDS011;54708;43.612;1.568;2023-11-18T11:49:00;4.45;;;2.85;;
67902;SDS011;54708;43.612;1.568;2023-11-18T11:51:36;3.13;;;2.58;;
67902;SDS011;54708;43.612;1.568;2023-11-18T11:54:09;2.22;;;1.77;;
67902;SDS011;54708;43.612;1.568;2023-11-18T11:59:12;3.00;;;1.87;;
67902;SDS011;54708;43.612;1.568;2023-11-18T12:01:40;1.70;;;1.60;;
67902;SDS011;54708;43.612;1.568;2023-11-18T12:04:10;4.53;;;2.50;;
67902;SDS011;54708;43.612;1.568;2023-11-18T12:06:42;2.17;;;1.63;;
67902;SDS011;54708;43.612;1.568;2023-11-18T12:09:09;2.17;;;1.60;;
67902;SDS011;54708;43.612;1.568;2023-11-18T12:11:35;2.70;;;1.77;;
67902;SDS011;54708;43.612;1.568;2023-11-18T12:14:07;2.60;;;1.42;;
67902;SDS011;54708;43.612;1.568;2023-11-18T12:17:04;2.77;;;1.53;;
67902;SDS011;54708;43.612;1.568;2023-11-18T12:19:43;5.95;;;1.92;;
67902;SDS011;54708;43.612;1.568;2023-11-18T12:22:15;2.28;;;1.13;;
67902;SDS011;54708;43.612;1.568;2023-11-18T12:35:29;1.42;;;1.00;;
67902;SDS011;54708;43.612;1.568;2023-11-18T12:40:59;3.35;;;2.10;;
67902;SDS011;54708;43.612;1.568;2023-11-18T12:44:00;1.50;;;0.95;;
67902;SDS011;54708;43.612;1.568;2023-11-18T12:46:41;3.20;;;1.38;;
67902;SDS011;54708;43.612;1.568;2023-11-18T12:49:20;1.90;;;1.10;;
67902;SDS011;54708;43.612;1.568;2023-11-18T12:51:48;2.50;;;1.10;;
67902;SDS011;54708;43.612;1.568;2023-11-18T12:54:17;2.47;;;1.33;;
67902;SDS011;54708;43.612;1.568;2023-11-18T12:56:44;2.78;;;1.08;;
67902;SDS011;54708;43.612;1.568;2023-11-18T12:59:13;2.47;;;1.25;;
67902;SDS011;54708;43.612;1.568;2023-11-18T13:04:21;4.82;;;1.15;;
67902;SDS011;54708;43.612;1.568;2023-11-18T13:06:49;5.45;;;1.65;;
67902;SDS011;54708;43.612;1.568;2023-11-18T13:09:16;2.10;;;1.30;;
67902;SDS011;54708;43.612;1.568;2023-11-18T13:11:57;3.38;;;1.27;;
67902;SDS011;54708;43.612;1.568;2023-11-18T13:14:27;2.17;;;1.38;;
67902;SDS011;54708;43.612;1.568;2023-11-18T13:16:53;2.30;;;1.45;;
67902;SDS011;54708;43.612;1.568;2023-11-18T13:19:25;2.70;;;0.95;;
67902;SDS011;54708;43.612;1.568;2023-11-18T13:21:56;2.58;;;1.30;;
67902;SDS011;54708;43.612;1.568;2023-11-18T13:24:25;1.30;;;1.00;;
67902;SDS011;54708;43.612;1.568;2023-11-18T13:26:52;1.08;;;0.90;;
67902;SDS011;54708;43.612;1.568;2023-11-18T13:29:19;4.40;;;1.33;;
67902;SDS011;54708;43.612;1.568;2023-11-18T13:31:46;2.72;;;1.50;;
67902;SDS011;54708;43.612;1.568;2023-11-18T13:34:12;4.15;;;1.23;;
67902;SDS011;54708;43.612;1.568;2023-11-18T13:36:38;2.00;;;1.27;;
67902;SDS011;54708;43.612;1.568;2023-11-18T13:39:03;2.20;;;1.40;;
67902;SDS011;54708;43.612;1.568;2023-11-18T13:41:31;1.65;;;1.20;;
67902;SDS011;54708;43.612;1.568;2023-11-18T13:43:57;2.10;;;1.00;;
67902;SDS011;54708;43.612;1.568;2023-11-18T13:46:23;3.00;;;1.17;;
67902;SDS011;54708;43.612;1.568;2023-11-18T13:48:49;5.07;;;1.30;;
67902;SDS011;54708;43.612;1.568;2023-11-18T13:51:15;1.10;;;0.95;;
67902;SDS011;54708;43.612;1.568;2023-11-18T13:53:41;2.38;;;1.30;;
67902;SDS011;54708;43.612;1.568;2023-11-18T13:56:12;1.08;;;0.90;;
67902;SDS011;54708;43.612;1.568;2023-11-18T13:58:38;2.60;;;1.10;;
67902;SDS011;54708;43.612;1.568;2023-11-18T14:01:07;2.78;;;1.00;;
67902;SDS011;54708;43.612;1.568;2023-11-18T14:03:34;1.63;;;1.00;;
67902;SDS011;54708;43.612;1.568;2023-11-18T14:05:59;4.20;;;1.58;;
67902;SDS011;54708;43.612;1.568;2023-11-18T14:08:26;1.15;;;0.98;;
67902;SDS011;54708;43.612;1.568;2023-11-18T14:10:52;3.58;;;0.80;;
67902;SDS011;54708;43.612;1.568;2023-11-18T14:13:18;1.27;;;0.93;;
67902;SDS011;54708;43.612;1.568;2023-11-18T14:15:44;4.43;;;1.23;;
67902;SDS011;54708;43.612;1.568;2023-11-18T14:18:10;1.45;;;1.02;;
67902;SDS011;54708;43.612;1.568;2023-11-18T14:20:36;1.58;;;1.33;;
67902;SDS011;54708;43.612;1.568;2023-11-18T14:23:02;1.48;;;0.90;;
67902;SDS011;54708;43.612;1.568;2023-11-18T14:25:31;2.60;;;1.15;;
67902;SDS011;54708;43.612;1.568;2023-11-18T14:27:57;2.25;;;1.10;;
67902;SDS011;54708;43.612;1.568;2023-11-18T14:30:22;3.67;;;1.17;;
67902;SDS011;54708;43.612;1.568;2023-11-18T14:32:51;0.80;;;0.80;;
67902;SDS011;54708;43.612;1.568;2023-11-18T14:35:16;1.15;;;0.90;;
67902;SDS011;54708;43.612;1.568;2023-11-18T14:37:45;1.73;;;1.10;;
67902;SDS011;54708;43.612;1.568;2023-11-18T14:40:13;1.70;;;0.98;;
67902;SDS011;54708;43.612;1.568;2023-11-18T14:42:43;2.00;;;1.15;;
67902;SDS011;54708;43.612;1.568;2023-11-18T14:45:09;1.95;;;1.02;;
67902;SDS011;54708;43.612;1.568;2023-11-18T14:47:37;2.25;;;1.05;;
67902;SDS011;54708;43.612;1.568;2023-11-18T14:50:02;1.25;;;1.15;;
67902;SDS011;54708;43.612;1.568;2023-11-18T14:52:30;1.75;;;1.38;;
67902;SDS011;54708;43.612;1.568;2023-11-18T14:54:55;1.45;;;1.02;;
67902;SDS011;54708;43.612;1.568;2023-11-18T14:57:21;1.52;;;0.98;;
67902;SDS011;54708;43.612;1.568;2023-11-18T14:59:46;3.15;;;1.13;;
67902;SDS011;54708;43.612;1.568;2023-11-18T15:02:11;1.52;;;1.00;;
67902;SDS011;54708;43.612;1.568;2023-11-18T15:04:37;3.40;;;1.15;;
67902;SDS011;54708;43.612;1.568;2023-11-18T15:07:02;1.70;;;1.25;;
67902;SDS011;54708;43.612;1.568;2023-11-18T15:09:28;2.03;;;1.33;;
67902;SDS011;54708;43.612;1.568;2023-11-18T15:11:57;1.50;;;1.10;;
67902;SDS011;54708;43.612;1.568;2023-11-18T15:14:23;2.70;;;1.27;;
67902;SDS011;54708;43.612;1.568;2023-11-18T15:16:50;1.60;;;1.40;;